createdAt,value
2019-05-19T00:02:05.902Z,21.27
2019-05-19T00:04:36.143Z,18.97
2019-05-19T00:07:06.008Z,17.03
2019-05-19T00:09:35.967Z,16.53
2019-05-19T00:12:06.285Z,18.13
2019-05-19T00:14:36.294Z,17.50
2019-05-19T00:17:06.428Z,16.20
2019-05-19T00:19:36.355Z,16.23
2019-05-19T00:22:06.269Z,16.40
2019-05-19T00:24:36.181Z,16.03
2019-05-19T00:27:06.110Z,15.20
2019-05-19T00:29:36.047Z,14.93
2019-05-19T00:32:06.040Z,16.03
2019-05-19T00:34:35.938Z,16.93
2019-05-19T00:37:06.701Z,16.27
2019-05-19T00:39:36.646Z,15.57
2019-05-19T00:42:06.554Z,25.63
2019-05-19T00:44:36.725Z,16.20
2019-05-19T00:47:06.671Z,16.30
2019-05-19T00:49:41.512Z,18.10
2019-05-19T00:52:10.073Z,17.10
2019-05-19T00:54:39.974Z,17.27
2019-05-19T00:57:10.704Z,16.27
2019-05-19T00:59:41.967Z,17.53
2019-05-19T01:02:12.069Z,18.73
2019-05-19T01:04:41.972Z,18.20
2019-05-19T01:07:11.927Z,15.10
2019-05-19T01:09:41.912Z,17.13
2019-05-19T01:12:11.903Z,16.33
2019-05-19T01:14:41.890Z,17.13
2019-05-19T01:17:11.819Z,17.43
2019-05-19T01:19:54.929Z,16.23
2019-05-19T01:22:14.147Z,17.80
2019-05-19T01:24:44.027Z,16.10
2019-05-19T01:27:13.920Z,16.67
2019-05-19T01:29:43.829Z,15.30
2019-05-19T01:32:13.726Z,14.73
2019-05-19T01:34:43.680Z,16.03
2019-05-19T01:37:13.579Z,15.37
2019-05-19T01:39:43.496Z,14.83
2019-05-19T01:42:13.401Z,15.63
2019-05-19T01:44:43.307Z,15.03
2019-05-19T01:47:13.222Z,16.87
2019-05-19T01:49:43.141Z,15.00
2019-05-19T01:52:13.092Z,16.27
2019-05-19T01:54:43.113Z,12.77
2019-05-19T01:57:13.028Z,13.30
2019-05-19T01:59:43.091Z,13.17
2019-05-19T02:02:13.020Z,12.60
2019-05-19T02:04:42.935Z,10.87
2019-05-19T02:07:12.907Z,12.30
2019-05-19T02:09:42.925Z,13.03
2019-05-19T02:12:12.839Z,12.13
2019-05-19T02:14:42.727Z,12.07
2019-05-19T02:17:12.700Z,12.40
2019-05-19T02:19:42.655Z,12.03
2019-05-19T02:22:12.636Z,11.53
2019-05-19T02:24:42.535Z,11.90
2019-05-19T02:27:12.432Z,21.73
2019-05-19T02:29:42.372Z,12.10
2019-05-19T02:32:12.322Z,11.67
2019-05-19T02:34:42.412Z,12.00
2019-05-19T02:37:12.378Z,11.50
2019-05-19T02:39:42.287Z,11.03
2019-05-19T02:42:16.035Z,12.17
2019-05-19T02:44:48.673Z,11.37
2019-05-19T02:47:21.160Z,12.33
2019-05-19T02:49:54.818Z,12.27
2019-05-19T02:52:27.462Z,11.93
2019-05-19T02:54:59.500Z,11.03
2019-05-19T02:57:29.844Z,12.37
2019-05-19T03:00:01.176Z,11.60
2019-05-19T03:02:31.026Z,12.10
2019-05-19T03:05:01.249Z,11.00
2019-05-19T03:07:31.144Z,12.37
2019-05-19T03:10:01.352Z,11.17
2019-05-19T03:12:31.350Z,11.63
2019-05-19T03:15:01.235Z,11.77
2019-05-19T03:17:31.142Z,13.13
2019-05-19T03:20:01.021Z,11.43
2019-05-19T03:22:30.928Z,11.70
2019-05-19T03:25:00.802Z,10.53
2019-05-19T03:27:30.711Z,12.60
2019-05-19T03:30:19.565Z,11.83
2019-05-19T03:32:54.041Z,11.73
2019-05-19T03:35:24.023Z,12.87
2019-05-19T03:37:54.015Z,11.80
2019-05-19T03:40:24.022Z,11.27
2019-05-19T03:42:54.005Z,11.77
2019-05-19T03:45:23.903Z,11.00
2019-05-19T03:47:53.805Z,10.27
2019-05-19T03:50:23.683Z,11.93
2019-05-19T03:52:53.669Z,11.77
2019-05-19T03:55:23.564Z,12.03
2019-05-19T03:57:53.459Z,11.27
2019-05-19T04:00:23.806Z,11.93
2019-05-19T04:02:53.778Z,11.80
2019-05-19T04:05:23.675Z,11.13
2019-05-19T04:07:53.569Z,12.57
2019-05-19T04:10:23.737Z,12.33
2019-05-19T04:12:53.694Z,11.33
2019-05-19T04:15:23.568Z,12.27
2019-05-19T04:17:53.457Z,11.90
2019-05-19T04:20:23.345Z,11.30
2019-05-19T04:22:53.406Z,10.93
2019-05-19T04:25:23.387Z,11.63
2019-05-19T04:27:53.328Z,11.27
2019-05-19T04:30:23.373Z,13.40
2019-05-19T04:32:53.345Z,11.80
2019-05-19T04:35:23.333Z,11.13
2019-05-19T04:37:53.304Z,11.57
2019-05-19T04:40:23.236Z,11.03
2019-05-19T04:42:53.137Z,11.33
2019-05-19T04:45:23.039Z,10.57
2019-05-19T04:47:53.277Z,11.13
2019-05-19T04:50:23.177Z,11.77
2019-05-19T04:52:53.117Z,12.13
2019-05-19T04:55:23.014Z,11.50
2019-05-19T04:57:52.895Z,11.20
2019-05-19T05:00:22.868Z,10.90
2019-05-19T05:02:53.012Z,11.90
2019-05-19T05:05:23.366Z,11.07
2019-05-19T05:07:53.252Z,11.67
2019-05-19T05:10:23.220Z,12.97
2019-05-19T05:12:54.358Z,11.20
2019-05-19T05:15:24.322Z,12.13
2019-05-19T05:17:54.213Z,13.57
2019-05-19T05:20:24.127Z,12.40
2019-05-19T05:22:54.105Z,11.67
2019-05-19T05:25:23.995Z,10.93
2019-05-19T05:27:53.887Z,12.97
2019-05-19T05:30:23.802Z,11.87
2019-05-19T05:32:53.805Z,11.27
2019-05-19T05:35:23.702Z,13.23
2019-05-19T05:37:53.584Z,12.57
2019-05-19T05:40:23.487Z,12.27
2019-05-19T05:42:53.400Z,11.03
2019-05-19T05:45:23.397Z,12.00
2019-05-19T05:47:53.360Z,11.67
2019-05-19T05:50:23.441Z,12.23
2019-05-19T05:52:53.390Z,12.63
2019-05-19T05:55:23.298Z,12.73
2019-05-19T05:57:53.225Z,12.83
2019-05-19T06:00:24.797Z,12.73
2019-05-19T06:02:54.693Z,11.40
2019-05-19T06:05:24.779Z,11.90
2019-05-19T06:07:54.658Z,11.70
2019-05-19T06:10:24.571Z,11.47
2019-05-19T06:12:54.447Z,13.00
2019-05-19T06:15:24.403Z,12.30
2019-05-19T06:17:54.318Z,11.43
2019-05-19T06:20:24.263Z,13.30
2019-05-19T06:22:56.850Z,12.63
2019-05-19T06:25:26.219Z,11.40
2019-05-19T06:27:56.331Z,12.33
2019-05-19T06:30:26.221Z,11.60
2019-05-19T06:32:57.692Z,12.50
2019-05-19T06:35:27.662Z,11.43
2019-05-19T06:37:57.846Z,11.00
2019-05-19T06:40:27.747Z,12.20
2019-05-19T06:42:57.645Z,13.50
2019-05-19T06:45:27.555Z,11.73
2019-05-19T06:47:57.621Z,11.33
2019-05-19T06:50:27.592Z,10.60
2019-05-19T06:53:12.729Z,11.63
2019-05-19T06:55:29.299Z,11.40
2019-05-19T06:57:59.266Z,11.97
2019-05-19T07:00:29.160Z,10.53
2019-05-19T07:02:59.063Z,11.07
2019-05-19T07:05:28.972Z,10.60
2019-05-19T07:07:59.276Z,10.33
2019-05-19T07:10:29.157Z,10.50
2019-05-19T07:12:59.039Z,10.20
2019-05-19T07:15:28.939Z,9.63
2019-05-19T07:17:58.893Z,8.93
2019-05-19T07:20:28.833Z,9.77
2019-05-19T07:22:58.719Z,9.70
2019-05-19T07:25:28.617Z,9.40
2019-05-19T07:27:58.496Z,8.67
2019-05-19T07:30:28.382Z,9.10
2019-05-19T07:32:58.263Z,8.83
2019-05-19T07:35:28.280Z,8.57
2019-05-19T07:37:58.193Z,8.60
2019-05-19T07:40:28.258Z,9.30
2019-05-19T07:42:58.195Z,9.33
2019-05-19T07:45:28.214Z,8.47
2019-05-19T07:47:58.098Z,8.63
2019-05-19T07:50:28.065Z,7.67
2019-05-19T07:52:57.968Z,8.13
2019-05-19T07:55:26.826Z,7.37
2019-05-19T07:57:56.790Z,8.47
2019-05-19T08:00:26.657Z,8.17
2019-05-19T08:03:15.875Z,8.30
2019-05-19T08:05:45.942Z,7.07
2019-05-19T08:08:15.897Z,6.60
2019-05-19T08:10:45.901Z,7.33
2019-05-19T08:13:16.291Z,6.67
2019-05-19T08:15:46.198Z,5.90
2019-05-19T08:18:16.136Z,6.83
2019-05-19T08:20:46.041Z,6.33
2019-05-19T08:23:15.966Z,6.53
2019-05-19T08:25:45.918Z,5.17
2019-05-19T08:28:15.914Z,6.57
2019-05-19T08:30:45.836Z,5.57
2019-05-19T08:33:15.797Z,5.77
2019-05-19T08:35:45.763Z,5.80
2019-05-19T08:38:15.765Z,6.50
2019-05-19T08:40:45.917Z,5.90
2019-05-19T08:43:15.880Z,5.40
2019-05-19T08:45:45.953Z,5.63
2019-05-19T08:48:15.930Z,6.53
2019-05-19T08:50:46.052Z,6.27
2019-05-19T08:53:16.075Z,5.87
2019-05-19T08:55:46.194Z,6.37
2019-05-19T08:58:16.814Z,5.90
2019-05-19T09:00:46.875Z,6.37
2019-05-19T09:03:16.988Z,6.30
2019-05-19T09:05:48.014Z,6.73
2019-05-19T09:08:18.030Z,6.13
2019-05-19T09:10:48.007Z,6.00
2019-05-19T09:13:17.941Z,6.80
2019-05-19T09:15:47.848Z,6.00
2019-05-19T09:18:17.768Z,6.53
2019-05-19T09:20:47.788Z,6.10
2019-05-19T09:23:17.804Z,5.63
2019-05-19T09:25:47.843Z,5.33
2019-05-19T09:28:17.896Z,6.43
2019-05-19T09:30:47.811Z,5.47
2019-05-19T09:33:17.760Z,5.33
2019-05-19T09:35:47.691Z,5.70
2019-05-19T09:38:17.597Z,5.67
2019-05-19T09:40:47.619Z,5.53
2019-05-19T09:43:17.554Z,5.63
2019-05-19T09:45:47.584Z,6.70
2019-05-19T09:48:17.552Z,5.50
2019-05-19T09:50:47.450Z,4.87
2019-05-19T09:53:17.508Z,5.30
2019-05-19T09:55:47.482Z,5.23
2019-05-19T09:58:19.983Z,5.00
2019-05-19T10:00:49.509Z,4.47
2019-05-19T10:03:19.891Z,4.57
2019-05-19T10:05:49.829Z,3.73
2019-05-19T10:08:26.460Z,3.80
2019-05-19T10:11:37.160Z,3.80
2019-05-19T10:14:07.110Z,4.23
2019-05-19T10:16:37.159Z,4.37
2019-05-19T10:19:07.260Z,4.00
2019-05-19T10:21:37.234Z,4.77
2019-05-19T10:24:07.224Z,4.40
2019-05-19T10:26:37.467Z,4.50
2019-05-19T10:29:07.359Z,4.40
2019-05-19T10:31:37.272Z,5.47
2019-05-19T10:34:07.414Z,4.93
2019-05-19T10:36:37.460Z,4.90
2019-05-19T10:39:07.934Z,5.57
2019-05-19T10:41:37.901Z,4.83
2019-05-19T10:44:07.899Z,4.93
2019-05-19T10:46:37.801Z,5.97
2019-05-19T10:49:07.746Z,4.17
2019-05-19T10:51:37.681Z,4.50
2019-05-19T10:54:07.749Z,4.57
2019-05-19T10:56:37.642Z,4.80
2019-05-19T10:59:07.635Z,4.47
2019-05-19T11:01:37.538Z,4.90
2019-05-19T11:04:07.595Z,4.73
2019-05-19T11:06:37.493Z,4.40
2019-05-19T11:09:08.527Z,4.67
2019-05-19T11:11:38.672Z,4.57
2019-05-19T11:14:08.775Z,5.00
2019-05-19T11:16:38.807Z,4.90
2019-05-19T11:19:08.786Z,4.97
2019-05-19T11:21:38.689Z,5.17
2019-05-19T11:24:08.603Z,5.63
2019-05-19T11:26:38.528Z,5.53
2019-05-19T11:29:08.501Z,5.00
2019-05-19T11:31:38.377Z,5.00
2019-05-19T11:34:08.278Z,5.57
2019-05-19T11:36:38.202Z,5.57
2019-05-19T11:39:09.773Z,5.53
2019-05-19T11:41:39.768Z,5.40
2019-05-19T11:44:09.727Z,4.90
2019-05-19T11:46:39.636Z,4.90
2019-05-19T11:49:09.534Z,4.67
2019-05-19T11:51:39.448Z,4.90
2019-05-19T11:54:09.351Z,5.27
2019-05-19T11:56:39.268Z,5.27
2019-05-19T11:59:09.160Z,5.33
2019-05-19T12:01:39.056Z,4.90
2019-05-19T12:04:09.026Z,5.90
2019-05-19T12:06:40.131Z,5.30
2019-05-19T12:09:10.203Z,5.57
2019-05-19T12:11:40.102Z,5.40
2019-05-19T12:14:10.050Z,5.23
2019-05-19T12:16:40.014Z,5.07
2019-05-19T12:19:10.015Z,4.80
2019-05-19T12:21:39.895Z,5.57
2019-05-19T12:24:09.803Z,5.20
2019-05-19T12:26:39.688Z,5.87
2019-05-19T12:29:09.602Z,7.33
2019-05-19T12:31:39.484Z,5.80
2019-05-19T12:34:09.430Z,5.87
2019-05-19T12:36:39.446Z,5.80
2019-05-19T12:39:09.623Z,6.57
2019-05-19T12:41:39.572Z,5.80
2019-05-19T12:44:09.508Z,6.77
2019-05-19T12:46:39.540Z,6.80
2019-05-19T12:49:09.475Z,6.00
2019-05-19T12:51:39.513Z,5.87
2019-05-19T12:54:09.533Z,6.77
2019-05-19T12:56:40.295Z,5.70
2019-05-19T12:59:10.353Z,6.37
2019-05-19T13:01:40.256Z,6.57
2019-05-19T13:04:10.155Z,6.03
2019-05-19T13:06:40.066Z,6.43
2019-05-19T13:09:10.309Z,6.20
2019-05-19T13:11:40.311Z,5.80
2019-05-19T13:14:10.307Z,6.70
2019-05-19T13:16:40.227Z,6.23
2019-05-19T13:19:10.212Z,7.20
2019-05-19T13:21:40.129Z,6.70
2019-05-19T13:24:10.098Z,6.43
2019-05-19T13:26:55.289Z,6.50
2019-05-19T13:29:11.635Z,6.10
2019-05-19T13:31:41.626Z,5.80
2019-05-19T13:34:11.520Z,6.60
2019-05-19T13:36:41.426Z,5.20
2019-05-19T13:39:11.652Z,5.90
2019-05-19T13:41:41.572Z,6.20
2019-05-19T13:44:11.459Z,6.50
2019-05-19T13:46:41.389Z,7.23
2019-05-19T13:49:11.260Z,6.37
2019-05-19T13:51:41.123Z,6.80
2019-05-19T13:54:11.020Z,5.80
2019-05-19T13:56:40.990Z,6.50
2019-05-19T13:59:10.887Z,7.90
2019-05-19T14:01:40.777Z,8.57
2019-05-19T14:04:10.673Z,6.53
2019-05-19T14:06:40.565Z,6.13
2019-05-19T14:09:10.518Z,6.63
2019-05-19T14:11:40.436Z,6.83
2019-05-19T14:14:10.316Z,6.50
2019-05-19T14:16:40.204Z,7.10
2019-05-19T14:19:10.105Z,7.63
2019-05-19T14:21:40.139Z,7.83
2019-05-19T14:24:10.156Z,7.60
2019-05-19T14:26:40.080Z,8.00
2019-05-19T14:29:10.025Z,7.50
2019-05-19T14:31:40.056Z,8.37
2019-05-19T14:34:10.005Z,7.17
2019-05-19T14:36:39.896Z,7.83
2019-05-19T14:39:10.023Z,7.30
2019-05-19T14:41:44.776Z,8.27
2019-05-19T14:44:14.708Z,7.20
2019-05-19T14:46:44.621Z,7.17
2019-05-19T14:49:14.500Z,6.30
2019-05-19T14:51:44.380Z,6.10
2019-05-19T14:54:14.496Z,6.67
2019-05-19T14:56:44.398Z,5.80
2019-05-19T14:59:14.272Z,5.50
2019-05-19T15:01:44.171Z,5.60
2019-05-19T15:04:14.379Z,6.67
2019-05-19T15:06:44.308Z,6.03
2019-05-19T15:09:14.215Z,6.33
2019-05-19T15:11:44.105Z,5.50
2019-05-19T15:14:13.972Z,6.40
2019-05-19T15:16:43.856Z,6.97
2019-05-19T15:19:13.723Z,6.17
2019-05-19T15:21:43.611Z,6.40
2019-05-19T15:24:13.481Z,5.90
2019-05-19T15:26:43.449Z,6.30
2019-05-19T15:29:13.353Z,6.90
2019-05-19T15:31:44.034Z,7.20
2019-05-19T15:34:13.987Z,5.83
2019-05-19T15:36:43.962Z,6.90
2019-05-19T15:39:14.661Z,6.90
2019-05-19T15:41:44.720Z,6.27
2019-05-19T15:44:14.589Z,5.77
2019-05-19T15:46:44.465Z,6.80
2019-05-19T15:49:14.423Z,7.67
2019-05-19T15:51:59.183Z,6.80
2019-05-19T15:54:16.016Z,7.40
2019-05-19T15:56:46.002Z,6.67
2019-05-19T15:59:16.035Z,6.23
2019-05-19T16:01:46.091Z,7.30
2019-05-19T16:04:16.108Z,6.83
2019-05-19T16:06:46.031Z,6.60
2019-05-19T16:09:16.134Z,7.30
2019-05-19T16:11:46.026Z,6.63
2019-05-19T16:14:15.893Z,6.73
2019-05-19T16:16:45.956Z,7.00
2019-05-19T16:19:15.844Z,7.27
2019-05-19T16:21:45.868Z,6.80
2019-05-19T16:24:15.781Z,6.90
2019-05-19T16:26:45.811Z,7.30
2019-05-19T16:29:15.685Z,7.40
2019-05-19T16:31:45.555Z,7.17
2019-05-19T16:34:15.519Z,6.80
2019-05-19T16:36:45.473Z,7.10
2019-05-19T16:39:15.407Z,6.20
2019-05-19T16:41:45.270Z,6.23
2019-05-19T16:44:15.287Z,6.90
2019-05-19T16:46:45.732Z,7.40
2019-05-19T16:49:16.317Z,7.63
2019-05-19T16:51:46.632Z,7.70
2019-05-19T16:54:22.470Z,6.70
2019-05-19T16:56:52.353Z,7.53
2019-05-19T16:59:22.244Z,7.73
2019-05-19T17:01:52.134Z,8.33
2019-05-19T17:04:22.387Z,8.00
2019-05-19T17:06:52.263Z,7.37
2019-05-19T17:09:22.165Z,8.53
2019-05-19T17:11:52.342Z,8.90
2019-05-19T17:14:22.253Z,7.53
2019-05-19T17:16:52.131Z,7.87
2019-05-19T17:19:22.046Z,8.30
2019-05-19T17:21:52.322Z,8.90
2019-05-19T17:24:22.597Z,8.80
2019-05-19T17:26:52.476Z,9.93
2019-05-19T17:29:22.372Z,8.90
2019-05-19T17:32:05.261Z,8.33
2019-05-19T17:34:23.865Z,8.53
2019-05-19T17:36:53.736Z,8.87
2019-05-19T17:39:23.684Z,9.83
2019-05-19T17:41:53.631Z,8.80
2019-05-19T17:44:23.509Z,9.80
2019-05-19T17:46:53.481Z,10.40
2019-05-19T17:49:23.382Z,10.83
2019-05-19T17:51:53.254Z,9.87
2019-05-19T17:54:23.218Z,9.93
2019-05-19T17:56:54.758Z,9.33
2019-05-19T17:59:26.094Z,10.03
2019-05-19T18:01:56.005Z,11.17
2019-05-19T18:04:25.916Z,11.23
2019-05-19T18:06:56.039Z,10.00
2019-05-19T18:09:25.985Z,10.40
2019-05-19T18:11:56.105Z,11.50
2019-05-19T18:14:25.981Z,10.20
2019-05-19T18:16:55.847Z,9.77
2019-05-19T18:19:25.793Z,10.53
2019-05-19T18:21:55.845Z,10.63
2019-05-19T18:24:25.752Z,10.87
2019-05-19T18:26:55.604Z,12.47
2019-05-19T18:29:31.388Z,11.93
2019-05-19T18:31:57.174Z,10.60
2019-05-19T18:34:27.137Z,10.40
2019-05-19T18:36:57.065Z,11.83
2019-05-19T18:39:26.959Z,10.33
2019-05-19T18:41:56.829Z,9.70
2019-05-19T18:44:26.740Z,9.87
2019-05-19T18:46:56.619Z,10.83
2019-05-19T18:49:26.488Z,9.43
2019-05-19T18:51:56.438Z,8.77
2019-05-19T18:54:26.347Z,8.17
2019-05-19T18:56:56.244Z,9.20
2019-05-19T18:59:26.128Z,7.70
2019-05-19T19:01:56.124Z,8.70
2019-05-19T19:04:26.151Z,7.90
2019-05-19T19:06:56.040Z,9.10
2019-05-19T19:09:25.987Z,7.30
2019-05-19T19:11:55.868Z,7.83
2019-05-19T19:14:27.615Z,7.30
2019-05-19T19:16:57.342Z,7.80
2019-05-19T19:19:27.211Z,7.87
2019-05-19T19:21:57.195Z,8.20
2019-05-19T19:24:27.062Z,7.87
2019-05-19T19:26:56.966Z,7.30
2019-05-19T19:29:26.876Z,8.10
2019-05-19T19:31:56.724Z,7.80
2019-05-19T19:34:26.843Z,7.63
2019-05-19T19:36:56.711Z,6.90
2019-05-19T19:39:26.575Z,7.33
2019-05-19T19:41:56.458Z,8.33
2019-05-19T19:44:27.049Z,7.23
2019-05-19T19:46:56.915Z,7.10
2019-05-19T19:49:26.772Z,7.43
2019-05-19T19:51:56.645Z,8.03
2019-05-19T19:54:26.522Z,7.87
2019-05-19T19:56:56.446Z,7.90
2019-05-19T19:59:26.727Z,8.00
2019-05-19T20:01:56.677Z,8.13
2019-05-19T20:04:26.533Z,7.57
2019-05-19T20:06:57.366Z,8.23
2019-05-19T20:09:27.243Z,7.53
2019-05-19T20:11:57.155Z,7.30
2019-05-19T20:14:27.034Z,7.53
2019-05-19T20:16:56.917Z,8.30
2019-05-19T20:19:28.082Z,9.30
2019-05-19T20:21:58.266Z,8.60
2019-05-19T20:24:29.499Z,8.60
2019-05-19T20:27:00.365Z,8.13
2019-05-19T20:29:30.387Z,8.20
2019-05-19T20:32:01.067Z,8.20
2019-05-19T20:34:31.058Z,8.20
2019-05-19T20:37:00.947Z,9.17
2019-05-19T20:39:30.940Z,10.43
2019-05-19T20:42:01.380Z,8.80
2019-05-19T20:44:31.543Z,10.70
2019-05-19T20:47:01.994Z,9.13
2019-05-19T20:49:31.998Z,9.37
2019-05-19T20:52:02.540Z,9.07
2019-05-19T20:54:32.906Z,9.23
2019-05-19T20:57:02.778Z,9.93
2019-05-19T20:59:32.735Z,9.27
2019-05-19T21:02:02.614Z,9.20
2019-05-19T21:04:32.564Z,10.50
2019-05-19T21:07:02.719Z,10.40
2019-05-19T21:09:33.266Z,9.47
2019-05-19T21:12:04.878Z,10.73
2019-05-19T21:14:34.723Z,10.47
2019-05-19T21:17:07.963Z,10.50
2019-05-19T21:19:39.051Z,10.87
2019-05-19T21:22:10.795Z,10.37
2019-05-19T21:24:41.219Z,10.73
2019-05-19T21:27:11.062Z,10.53
2019-05-19T21:29:41.207Z,10.23
2019-05-19T21:32:11.095Z,11.17
2019-05-19T21:34:41.944Z,10.40
2019-05-19T21:37:12.251Z,10.87
2019-05-19T21:39:42.194Z,9.90
2019-05-19T21:42:12.190Z,12.00
2019-05-19T21:44:42.178Z,11.30
2019-05-19T21:47:12.126Z,12.27
2019-05-19T21:49:42.017Z,11.47
2019-05-19T21:52:11.911Z,12.10
2019-05-19T21:54:41.793Z,12.17
2019-05-19T21:57:11.681Z,12.83
2019-05-19T21:59:41.816Z,10.90
2019-05-19T22:02:12.038Z,12.70
2019-05-19T22:04:41.946Z,12.50
2019-05-19T22:07:15.922Z,12.33
2019-05-19T22:09:45.817Z,12.27
2019-05-19T22:12:15.730Z,11.90
2019-05-19T22:14:45.679Z,13.53
2019-05-19T22:17:15.627Z,12.17
2019-05-19T22:19:45.530Z,12.07
2019-05-19T22:22:15.429Z,12.20
2019-05-19T22:24:45.327Z,12.40
2019-05-19T22:27:15.214Z,13.53
2019-05-19T22:29:45.099Z,11.67
2019-05-19T22:32:14.972Z,12.73
2019-05-19T22:34:44.862Z,12.53
2019-05-19T22:37:14.756Z,13.87
2019-05-19T22:39:44.761Z,12.10
2019-05-19T22:42:14.633Z,13.80
2019-05-19T22:44:44.542Z,13.83
2019-05-19T22:47:15.268Z,13.50
2019-05-19T22:49:45.358Z,12.17
2019-05-19T22:52:15.640Z,13.07
2019-05-19T22:54:45.599Z,13.23
2019-05-19T22:57:18.003Z,13.73
2019-05-19T22:59:47.868Z,13.63
2019-05-19T23:02:17.745Z,13.70
2019-05-19T23:04:47.641Z,14.23
2019-05-19T23:07:17.599Z,12.67
2019-05-19T23:09:47.497Z,11.90
2019-05-19T23:12:17.367Z,13.97
2019-05-19T23:14:47.349Z,14.53
2019-05-19T23:17:19.606Z,13.00
2019-05-19T23:19:49.530Z,13.63
2019-05-19T23:22:19.431Z,15.83
2019-05-19T23:24:49.307Z,16.53
2019-05-19T23:27:19.291Z,15.17
2019-05-19T23:29:49.904Z,15.03
2019-05-19T23:32:20.355Z,14.50
2019-05-19T23:34:50.360Z,14.30
2019-05-19T23:37:21.412Z,16.90
2019-05-19T23:39:54.048Z,15.17
2019-05-19T23:42:23.011Z,16.00
2019-05-19T23:44:52.890Z,16.03
2019-05-19T23:47:22.770Z,16.73
2019-05-19T23:49:52.651Z,15.27
2019-05-19T23:52:22.512Z,16.13
2019-05-19T23:54:52.389Z,15.87
2019-05-19T23:57:22.330Z,15.37
2019-05-19T23:59:52.214Z,15.23
